sensor_id;sensor_type;location;lat;lon;timestamp;P1;durP1;ratioP1;P2;durP2;ratioP2
41333;SDS011;27078;46.428;6.256;2023-04-29T00:00:24;4.60;;;1.70;;
41333;SDS011;27078;46.428;6.256;2023-04-29T00:02:50;2.90;;;1.75;;
41333;SDS011;27078;46.428;6.256;2023-04-29T00:05:15;2.75;;;1.90;;
41333;SDS011;27078;46.428;6.256;2023-04-29T00:07:41;3.35;;;1.98;;
41333;SDS011;27078;46.428;6.256;2023-04-29T00:10:07;2.95;;;2.20;;
41333;SDS011;27078;46.428;6.256;2023-04-29T00:12:32;4.72;;;2.38;;
41333;SDS011;27078;46.428;6.256;2023-04-29T00:14:58;3.63;;;2.13;;
41333;SDS011;27078;46.428;6.256;2023-04-29T00:17:24;3.17;;;2.00;;
41333;SDS011;27078;46.428;6.256;2023-04-29T00:19:50;4.53;;;1.90;;
41333;SDS011;27078;46.428;6.256;2023-04-29T00:22:15;2.50;;;1.50;;
41333;SDS011;27078;46.428;6.256;2023-04-29T00:24:41;3.20;;;2.05;;
41333;SDS011;27078;46.428;6.256;2023-04-29T00:27:06;3.45;;;2.13;;
41333;SDS011;27078;46.428;6.256;2023-04-29T00:29:32;3.30;;;1.90;;
41333;SDS011;27078;46.428;6.256;2023-04-29T00:31:57;3.72;;;2.20;;
41333;SDS011;27078;46.428;6.256;2023-04-29T00:34:23;3.72;;;1.95;;
41333;SDS011;27078;46.428;6.256;2023-04-29T00:36:48;3.47;;;2.10;;
41333;SDS011;27078;46.428;6.256;2023-04-29T00:39:14;3.60;;;2.40;;
41333;SDS011;27078;46.428;6.256;2023-04-29T00:41:40;3.75;;;2.30;;
41333;SDS011;27078;46.428;6.256;2023-04-29T00:44:05;4.85;;;2.53;;
41333;SDS011;27078;46.428;6.256;2023-04-29T00:46:31;4.90;;;2.40;;
41333;SDS011;27078;46.428;6.256;2023-04-29T00:48:57;3.55;;;2.20;;
41333;SDS011;27078;46.428;6.256;2023-04-29T00:51:24;3.00;;;1.92;;
41333;SDS011;27078;46.428;6.256;2023-04-29T00:53:50;2.92;;;2.00;;
41333;SDS011;27078;46.428;6.256;2023-04-29T00:56:15;5.70;;;2.35;;
41333;SDS011;27078;46.428;6.256;2023-04-29T00:58:42;5.05;;;2.55;;
41333;SDS011;27078;46.428;6.256;2023-04-29T01:01:13;3.42;;;2.00;;
41333;SDS011;27078;46.428;6.256;2023-04-29T01:03:40;4.65;;;2.08;;
41333;SDS011;27078;46.428;6.256;2023-04-29T01:06:15;4.40;;;2.10;;
41333;SDS011;27078;46.428;6.256;2023-04-29T01:14:30;6.72;;;2.30;;
41333;SDS011;27078;46.428;6.256;2023-04-29T01:16:59;5.05;;;2.28;;
41333;SDS011;27078;46.428;6.256;2023-04-29T01:19:39;5.07;;;2.85;;
41333;SDS011;27078;46.428;6.256;2023-04-29T01:22:10;4.90;;;2.63;;
41333;SDS011;27078;46.428;6.256;2023-04-29T01:24:38;4.63;;;2.75;;
41333;SDS011;27078;46.428;6.256;2023-04-29T01:27:16;4.68;;;2.53;;
41333;SDS011;27078;46.428;6.256;2023-04-29T01:29:55;5.63;;;2.65;;
41333;SDS011;27078;46.428;6.256;2023-04-29T01:35:29;4.93;;;2.63;;
41333;SDS011;27078;46.428;6.256;2023-04-29T01:38:15;5.45;;;2.92;;
41333;SDS011;27078;46.428;6.256;2023-04-29T01:40:47;4.65;;;2.80;;
41333;SDS011;27078;46.428;6.256;2023-04-29T01:43:21;6.88;;;2.60;;
41333;SDS011;27078;46.428;6.256;2023-04-29T01:45:48;6.32;;;2.90;;
41333;SDS011;27078;46.428;6.256;2023-04-29T01:48:15;5.68;;;3.00;;
41333;SDS011;27078;46.428;6.256;2023-04-29T01:50:41;4.22;;;2.70;;
41333;SDS011;27078;46.428;6.256;2023-04-29T01:53:07;4.97;;;2.30;;
41333;SDS011;27078;46.428;6.256;2023-04-29T01:55:32;5.32;;;2.97;;
41333;SDS011;27078;46.428;6.256;2023-04-29T01:57:58;4.18;;;2.50;;
41333;SDS011;27078;46.428;6.256;2023-04-29T02:00:23;4.53;;;2.72;;
41333;SDS011;27078;46.428;6.256;2023-04-29T02:02:48;5.22;;;2.83;;
41333;SDS011;27078;46.428;6.256;2023-04-29T02:05:14;5.18;;;2.60;;
41333;SDS011;27078;46.428;6.256;2023-04-29T02:07:39;3.92;;;2.65;;
41333;SDS011;27078;46.428;6.256;2023-04-29T02:10:06;4.65;;;2.80;;
41333;SDS011;27078;46.428;6.256;2023-04-29T02:12:32;7.15;;;2.97;;
41333;SDS011;27078;46.428;6.256;2023-04-29T02:14:57;3.30;;;2.63;;
41333;SDS011;27078;46.428;6.256;2023-04-29T02:17:23;6.38;;;2.90;;
41333;SDS011;27078;46.428;6.256;2023-04-29T02:19:49;4.95;;;2.78;;
41333;SDS011;27078;46.428;6.256;2023-04-29T02:22:15;4.22;;;2.75;;
41333;SDS011;27078;46.428;6.256;2023-04-29T02:24:40;4.55;;;2.67;;
41333;SDS011;27078;46.428;6.256;2023-04-29T02:27:06;4.40;;;3.00;;
41333;SDS011;27078;46.428;6.256;2023-04-29T02:29:31;5.60;;;3.08;;
41333;SDS011;27078;46.428;6.256;2023-04-29T02:31:57;5.45;;;2.95;;
41333;SDS011;27078;46.428;6.256;2023-04-29T02:34:22;4.63;;;2.97;;
41333;SDS011;27078;46.428;6.256;2023-04-29T02:36:48;4.78;;;3.10;;
41333;SDS011;27078;46.428;6.256;2023-04-29T02:39:14;5.30;;;2.90;;
41333;SDS011;27078;46.428;6.256;2023-04-29T02:41:39;4.65;;;3.00;;
41333;SDS011;27078;46.428;6.256;2023-04-29T02:44:06;6.03;;;3.40;;
41333;SDS011;27078;46.428;6.256;2023-04-29T02:46:31;5.80;;;3.80;;
41333;SDS011;27078;46.428;6.256;2023-04-29T02:48:58;6.45;;;4.22;;
41333;SDS011;27078;46.428;6.256;2023-04-29T02:51:24;7.05;;;4.25;;
41333;SDS011;27078;46.428;6.256;2023-04-29T02:53:50;7.00;;;4.88;;
41333;SDS011;27078;46.428;6.256;2023-04-29T02:56:16;9.18;;;4.72;;
41333;SDS011;27078;46.428;6.256;2023-04-29T02:58:41;6.28;;;4.55;;
41333;SDS011;27078;46.428;6.256;2023-04-29T03:01:06;7.00;;;4.60;;
41333;SDS011;27078;46.428;6.256;2023-04-29T03:03:32;6.47;;;4.32;;
41333;SDS011;27078;46.428;6.256;2023-04-29T03:05:57;5.72;;;4.20;;
41333;SDS011;27078;46.428;6.256;2023-04-29T03:08:22;6.35;;;3.80;;
41333;SDS011;27078;46.428;6.256;2023-04-29T03:10:48;6.60;;;3.22;;
41333;SDS011;27078;46.428;6.256;2023-04-29T03:13:13;7.63;;;3.55;;
41333;SDS011;27078;46.428;6.256;2023-04-29T03:15:38;6.47;;;3.30;;
41333;SDS011;27078;46.428;6.256;2023-04-29T03:18:04;6.93;;;3.90;;
41333;SDS011;27078;46.428;6.256;2023-04-29T03:20:29;6.40;;;3.20;;
41333;SDS011;27078;46.428;6.256;2023-04-29T03:22:54;5.82;;;3.58;;
41333;SDS011;27078;46.428;6.256;2023-04-29T03:25:20;5.57;;;3.53;;
41333;SDS011;27078;46.428;6.256;2023-04-29T03:27:45;8.77;;;3.60;;
41333;SDS011;27078;46.428;6.256;2023-04-29T03:30:11;6.90;;;3.53;;
41333;SDS011;27078;46.428;6.256;2023-04-29T03:32:36;6.82;;;3.50;;
41333;SDS011;27078;46.428;6.256;2023-04-29T03:35:02;5.70;;;3.35;;
41333;SDS011;27078;46.428;6.256;2023-04-29T03:37:27;6.28;;;3.42;;
41333;SDS011;27078;46.428;6.256;2023-04-29T03:39:52;5.10;;;3.25;;
41333;SDS011;27078;46.428;6.256;2023-04-29T03:42:18;6.18;;;3.70;;
41333;SDS011;27078;46.428;6.256;2023-04-29T03:44:43;6.22;;;3.60;;
41333;SDS011;27078;46.428;6.256;2023-04-29T03:47:08;5.47;;;3.08;;
41333;SDS011;27078;46.428;6.256;2023-04-29T03:49:34;5.47;;;3.50;;
41333;SDS011;27078;46.428;6.256;2023-04-29T03:51:59;7.90;;;3.70;;
41333;SDS011;27078;46.428;6.256;2023-04-29T03:54:25;6.10;;;3.78;;
41333;SDS011;27078;46.428;6.256;2023-04-29T03:56:50;8.45;;;5.22;;
41333;SDS011;27078;46.428;6.256;2023-04-29T03:59:16;8.38;;;5.50;;
41333;SDS011;27078;46.428;6.256;2023-04-29T04:01:41;6.85;;;5.20;;
41333;SDS011;27078;46.428;6.256;2023-04-29T04:04:06;6.15;;;4.72;;
41333;SDS011;27078;46.428;6.256;2023-04-29T04:06:32;6.97;;;4.57;;
41333;SDS011;27078;46.428;6.256;2023-04-29T04:08:57;6.75;;;4.40;;
41333;SDS011;27078;46.428;6.256;2023-04-29T04:11:22;6.43;;;4.82;;
41333;SDS011;27078;46.428;6.256;2023-04-29T04:13:48;7.05;;;4.88;;
41333;SDS011;27078;46.428;6.256;2023-04-29T04:16:13;6.95;;;5.28;;
41333;SDS011;27078;46.428;6.256;2023-04-29T04:18:39;7.10;;;5.22;;
41333;SDS011;27078;46.428;6.256;2023-04-29T04:21:05;7.43;;;5.68;;
41333;SDS011;27078;46.428;6.256;2023-04-29T04:23:34;6.97;;;5.28;;
41333;SDS011;27078;46.428;6.256;2023-04-29T04:26:00;6.63;;;4.90;;
41333;SDS011;27078;46.428;6.256;2023-04-29T04:28:25;6.13;;;4.72;;
41333;SDS011;27078;46.428;6.256;2023-04-29T04:30:51;6.45;;;4.40;;
41333;SDS011;27078;46.428;6.256;2023-04-29T04:33:16;5.45;;;4.47;;
41333;SDS011;27078;46.428;6.256;2023-04-29T04:35:42;6.50;;;3.90;;
41333;SDS011;27078;46.428;6.256;2023-04-29T04:38:07;4.72;;;3.28;;
41333;SDS011;27078;46.428;6.256;2023-04-29T04:40:34;5.15;;;3.70;;
41333;SDS011;27078;46.428;6.256;2023-04-29T04:42:59;5.13;;;3.20;;
41333;SDS011;27078;46.428;6.256;2023-04-29T04:45:27;4.85;;;3.42;;
41333;SDS011;27078;46.428;6.256;2023-04-29T04:47:53;4.38;;;3.42;;
41333;SDS011;27078;46.428;6.256;2023-04-29T04:50:19;4.53;;;3.60;;
41333;SDS011;27078;46.428;6.256;2023-04-29T04:52:44;5.43;;;3.17;;
41333;SDS011;27078;46.428;6.256;2023-04-29T04:55:10;4.00;;;2.97;;
41333;SDS011;27078;46.428;6.256;2023-04-29T04:57:35;4.03;;;2.92;;
41333;SDS011;27078;46.428;6.256;2023-04-29T05:00:01;3.90;;;2.65;;
41333;SDS011;27078;46.428;6.256;2023-04-29T05:02:28;4.68;;;2.90;;
41333;SDS011;27078;46.428;6.256;2023-04-29T05:04:53;4.15;;;2.70;;
41333;SDS011;27078;46.428;6.256;2023-04-29T05:07:18;3.63;;;2.80;;
41333;SDS011;27078;46.428;6.256;2023-04-29T05:09:44;4.20;;;2.58;;
41333;SDS011;27078;46.428;6.256;2023-04-29T05:12:09;4.88;;;3.78;;
41333;SDS011;27078;46.428;6.256;2023-04-29T05:14:35;5.82;;;4.10;;
41333;SDS011;27078;46.428;6.256;2023-04-29T05:17:00;5.28;;;4.10;;
41333;SDS011;27078;46.428;6.256;2023-04-29T05:19:26;4.85;;;3.78;;
41333;SDS011;27078;46.428;6.256;2023-04-29T05:21:51;4.45;;;3.60;;
41333;SDS011;27078;46.428;6.256;2023-04-29T05:24:17;4.60;;;3.40;;
41333;SDS011;27078;46.428;6.256;2023-04-29T05:26:42;5.13;;;3.58;;
41333;SDS011;27078;46.428;6.256;2023-04-29T05:29:08;4.20;;;3.05;;
41333;SDS011;27078;46.428;6.256;2023-04-29T05:31:34;5.10;;;3.67;;
41333;SDS011;27078;46.428;6.256;2023-04-29T05:34:00;3.80;;;2.97;;
41333;SDS011;27078;46.428;6.256;2023-04-29T05:36:25;5.88;;;3.28;;
41333;SDS011;27078;46.428;6.256;2023-04-29T05:38:52;4.38;;;3.10;;
41333;SDS011;27078;46.428;6.256;2023-04-29T05:41:17;4.78;;;3.17;;
41333;SDS011;27078;46.428;6.256;2023-04-29T05:43:42;3.85;;;2.92;;
41333;SDS011;27078;46.428;6.256;2023-04-29T05:46:08;4.78;;;3.35;;
41333;SDS011;27078;46.428;6.256;2023-04-29T05:48:33;4.25;;;3.20;;
41333;SDS011;27078;46.428;6.256;2023-04-29T05:50:59;4.65;;;3.20;;
41333;SDS011;27078;46.428;6.256;2023-04-29T05:53:24;3.35;;;2.53;;
41333;SDS011;27078;46.428;6.256;2023-04-29T05:55:50;4.20;;;2.70;;
41333;SDS011;27078;46.428;6.256;2023-04-29T05:58:15;3.55;;;2.95;;
41333;SDS011;27078;46.428;6.256;2023-04-29T06:00:41;3.78;;;2.70;;
41333;SDS011;27078;46.428;6.256;2023-04-29T06:03:08;3.55;;;2.70;;
41333;SDS011;27078;46.428;6.256;2023-04-29T06:05:34;3.55;;;2.92;;
41333;SDS011;27078;46.428;6.256;2023-04-29T06:08:00;3.88;;;3.00;;
41333;SDS011;27078;46.428;6.256;2023-04-29T06:10:26;4.80;;;3.30;;
41333;SDS011;27078;46.428;6.256;2023-04-29T06:12:51;3.33;;;2.72;;
41333;SDS011;27078;46.428;6.256;2023-04-29T06:15:16;4.20;;;3.00;;
41333;SDS011;27078;46.428;6.256;2023-04-29T06:17:42;3.67;;;3.10;;
41333;SDS011;27078;46.428;6.256;2023-04-29T06:20:07;3.92;;;3.40;;
41333;SDS011;27078;46.428;6.256;2023-04-29T06:22:33;5.45;;;3.90;;
41333;SDS011;27078;46.428;6.256;2023-04-29T06:24:58;4.20;;;3.70;;
41333;SDS011;27078;46.428;6.256;2023-04-29T06:27:24;5.55;;;3.67;;
41333;SDS011;27078;46.428;6.256;2023-04-29T06:29:49;4.40;;;3.75;;
41333;SDS011;27078;46.428;6.256;2023-04-29T06:32:14;4.63;;;3.80;;
41333;SDS011;27078;46.428;6.256;2023-04-29T06:34:40;4.95;;;4.20;;
41333;SDS011;27078;46.428;6.256;2023-04-29T06:37:05;4.53;;;3.95;;
41333;SDS011;27078;46.428;6.256;2023-04-29T06:39:31;5.10;;;4.07;;
41333;SDS011;27078;46.428;6.256;2023-04-29T06:41:56;4.53;;;3.63;;
41333;SDS011;27078;46.428;6.256;2023-04-29T06:44:22;4.68;;;3.55;;
41333;SDS011;27078;46.428;6.256;2023-04-29T06:46:48;4.93;;;3.78;;
41333;SDS011;27078;46.428;6.256;2023-04-29T06:49:13;4.57;;;3.83;;
41333;SDS011;27078;46.428;6.256;2023-04-29T06:51:39;6.13;;;3.90;;
41333;SDS011;27078;46.428;6.256;2023-04-29T06:54:06;4.00;;;3.53;;
41333;SDS011;27078;46.428;6.256;2023-04-29T06:56:32;4.65;;;3.40;;
41333;SDS011;27078;46.428;6.256;2023-04-29T06:58:57;4.60;;;3.38;;
41333;SDS011;27078;46.428;6.256;2023-04-29T07:01:23;4.65;;;3.22;;
41333;SDS011;27078;46.428;6.256;2023-04-29T07:03:48;5.65;;;3.22;;
41333;SDS011;27078;46.428;6.256;2023-04-29T07:06:13;5.50;;;3.70;;
41333;SDS011;27078;46.428;6.256;2023-04-29T07:08:39;4.40;;;3.38;;
41333;SDS011;27078;46.428;6.256;2023-04-29T07:11:04;4.00;;;2.88;;
41333;SDS011;27078;46.428;6.256;2023-04-29T07:13:29;4.63;;;2.90;;
41333;SDS011;27078;46.428;6.256;2023-04-29T07:15:55;3.85;;;2.90;;
41333;SDS011;27078;46.428;6.256;2023-04-29T07:18:21;3.83;;;2.65;;
41333;SDS011;27078;46.428;6.256;2023-04-29T07:20:46;3.28;;;2.15;;
41333;SDS011;27078;46.428;6.256;2023-04-29T07:23:12;4.32;;;2.20;;
41333;SDS011;27078;46.428;6.256;2023-04-29T07:25:38;3.28;;;2.00;;
41333;SDS011;27078;46.428;6.256;2023-04-29T07:28:04;3.53;;;2.03;;
41333;SDS011;27078;46.428;6.256;2023-04-29T07:30:29;4.47;;;1.92;;
41333;SDS011;27078;46.428;6.256;2023-04-29T07:32:55;3.65;;;1.85;;
41333;SDS011;27078;46.428;6.256;2023-04-29T07:35:20;4.55;;;1.80;;
41333;SDS011;27078;46.428;6.256;2023-04-29T07:37:46;3.08;;;1.77;;
41333;SDS011;27078;46.428;6.256;2023-04-29T07:40:12;3.85;;;1.75;;
41333;SDS011;27078;46.428;6.256;2023-04-29T07:42:37;3.40;;;1.67;;
41333;SDS011;27078;46.428;6.256;2023-04-29T07:45:03;4.13;;;1.58;;
41333;SDS011;27078;46.428;6.256;2023-04-29T07:47:29;3.30;;;1.70;;
41333;SDS011;27078;46.428;6.256;2023-04-29T07:49:55;3.47;;;1.45;;
41333;SDS011;27078;46.428;6.256;2023-04-29T07:52:21;4.50;;;1.48;;
41333;SDS011;27078;46.428;6.256;2023-04-29T07:54:46;4.57;;;1.30;;
41333;SDS011;27078;46.428;6.256;2023-04-29T07:57:12;2.35;;;1.20;;
41333;SDS011;27078;46.428;6.256;2023-04-29T07:59:37;2.35;;;1.10;;
41333;SDS011;27078;46.428;6.256;2023-04-29T08:02:03;2.42;;;0.80;;
41333;SDS011;27078;46.428;6.256;2023-04-29T08:04:28;2.00;;;0.75;;
41333;SDS011;27078;46.428;6.256;2023-04-29T08:06:54;2.58;;;0.80;;
41333;SDS011;27078;46.428;6.256;2023-04-29T08:09:20;3.08;;;0.95;;
41333;SDS011;27078;46.428;6.256;2023-04-29T08:11:45;2.25;;;1.10;;
41333;SDS011;27078;46.428;6.256;2023-04-29T08:14:11;3.95;;;1.13;;
41333;SDS011;27078;46.428;6.256;2023-04-29T08:16:36;2.13;;;1.00;;
41333;SDS011;27078;46.428;6.256;2023-04-29T08:19:01;4.53;;;2.35;;
41333;SDS011;27078;46.428;6.256;2023-04-29T08:21:27;16.48;;;7.78;;
41333;SDS011;27078;46.428;6.256;2023-04-29T08:23:52;6.35;;;4.25;;
41333;SDS011;27078;46.428;6.256;2023-04-29T08:26:19;21.60;;;11.68;;
41333;SDS011;27078;46.428;6.256;2023-04-29T08:28:46;6.15;;;3.70;;
41333;SDS011;27078;46.428;6.256;2023-04-29T08:31:15;8.20;;;3.47;;
41333;SDS011;27078;46.428;6.256;2023-04-29T08:33:44;4.60;;;2.10;;
41333;SDS011;27078;46.428;6.256;2023-04-29T08:36:10;4.93;;;2.22;;
41333;SDS011;27078;46.428;6.256;2023-04-29T08:38:36;16.92;;;6.78;;
41333;SDS011;27078;46.428;6.256;2023-04-29T08:41:01;12.50;;;5.90;;
41333;SDS011;27078;46.428;6.256;2023-04-29T08:43:27;5.00;;;2.72;;
41333;SDS011;27078;46.428;6.256;2023-04-29T08:45:53;6.40;;;3.00;;
41333;SDS011;27078;46.428;6.256;2023-04-29T08:48:19;5.88;;;2.15;;
41333;SDS011;27078;46.428;6.256;2023-04-29T08:50:45;6.28;;;2.00;;
41333;SDS011;27078;46.428;6.256;2023-04-29T08:53:14;4.30;;;1.90;;
41333;SDS011;27078;46.428;6.256;2023-04-29T08:55:45;8.10;;;2.53;;
41333;SDS011;27078;46.428;6.256;2023-04-29T08:58:12;4.28;;;1.55;;
41333;SDS011;27078;46.428;6.256;2023-04-29T09:08:42;2.05;;;1.17;;
41333;SDS011;27078;46.428;6.256;2023-04-29T09:11:08;1.58;;;0.80;;
41333;SDS011;27078;46.428;6.256;2023-04-29T09:13:36;4.03;;;1.30;;
41333;SDS011;27078;46.428;6.256;2023-04-29T09:16:01;2.30;;;1.30;;
41333;SDS011;27078;46.428;6.256;2023-04-29T09:23:40;4.65;;;1.92;;
41333;SDS011;27078;46.428;6.256;2023-04-29T09:26:06;3.50;;;1.40;;
41333;SDS011;27078;46.428;6.256;2023-04-29T09:28:32;2.10;;;1.52;;
41333;SDS011;27078;46.428;6.256;2023-04-29T09:30:57;2.47;;;1.50;;
41333;SDS011;27078;46.428;6.256;2023-04-29T09:33:23;2.45;;;1.35;;
41333;SDS011;27078;46.428;6.256;2023-04-29T09:35:52;2.30;;;1.20;;
41333;SDS011;27078;46.428;6.256;2023-04-29T09:38:17;2.53;;;1.13;;
41333;SDS011;27078;46.428;6.256;2023-04-29T09:40:43;2.28;;;1.08;;
41333;SDS011;27078;46.428;6.256;2023-04-29T09:43:12;1.70;;;0.90;;
41333;SDS011;27078;46.428;6.256;2023-04-29T09:45:40;1.48;;;0.80;;
41333;SDS011;27078;46.428;6.256;2023-04-29T09:48:07;1.17;;;0.60;;
41333;SDS011;27078;46.428;6.256;2023-04-29T09:50:34;1.52;;;0.90;;
41333;SDS011;27078;46.428;6.256;2023-04-29T09:53:03;1.67;;;0.60;;
41333;SDS011;27078;46.428;6.256;2023-04-29T09:55:35;2.13;;;0.73;;
41333;SDS011;27078;46.428;6.256;2023-04-29T09:58:01;2.85;;;0.73;;
41333;SDS011;27078;46.428;6.256;2023-04-29T10:00:30;1.95;;;0.63;;
41333;SDS011;27078;46.428;6.256;2023-04-29T10:02:59;1.45;;;0.75;;
41333;SDS011;27078;46.428;6.256;2023-04-29T10:05:28;1.42;;;0.70;;
41333;SDS011;27078;46.428;6.256;2023-04-29T10:07:54;2.10;;;0.80;;
41333;SDS011;27078;46.428;6.256;2023-04-29T10:10:22;2.50;;;0.90;;
41333;SDS011;27078;46.428;6.256;2023-04-29T10:12:48;1.67;;;0.70;;
41333;SDS011;27078;46.428;6.256;2023-04-29T10:15:28;3.03;;;1.00;;
41333;SDS011;27078;46.428;6.256;2023-04-29T10:20:46;1.20;;;0.70;;
41333;SDS011;27078;46.428;6.256;2023-04-29T10:23:12;2.58;;;0.73;;
41333;SDS011;27078;46.428;6.256;2023-04-29T10:25:39;1.27;;;0.85;;
41333;SDS011;27078;46.428;6.256;2023-04-29T10:28:08;1.38;;;0.88;;
41333;SDS011;27078;46.428;6.256;2023-04-29T10:30:38;1.75;;;0.80;;
41333;SDS011;27078;46.428;6.256;2023-04-29T10:33:06;1.83;;;0.80;;
41333;SDS011;27078;46.428;6.256;2023-04-29T10:35:34;1.77;;;0.90;;
41333;SDS011;27078;46.428;6.256;2023-04-29T10:38:01;1.92;;;1.00;;
41333;SDS011;27078;46.428;6.256;2023-04-29T10:40:39;1.00;;;0.50;;
41333;SDS011;27078;46.428;6.256;2023-04-29T10:43:09;0.90;;;0.60;;
41333;SDS011;27078;46.428;6.256;2023-04-29T10:45:35;1.50;;;0.80;;
41333;SDS011;27078;46.428;6.256;2023-04-29T10:53:14;2.50;;;1.00;;
41333;SDS011;27078;46.428;6.256;2023-04-29T10:55:40;2.90;;;1.20;;
41333;SDS011;27078;46.428;6.256;2023-04-29T11:00:59;5.75;;;1.05;;
41333;SDS011;27078;46.428;6.256;2023-04-29T11:06:22;1.90;;;0.90;;
41333;SDS011;27078;46.428;6.256;2023-04-29T11:08:59;2.13;;;0.80;;
41333;SDS011;27078;46.428;6.256;2023-04-29T11:14:07;1.92;;;0.90;;
41333;SDS011;27078;46.428;6.256;2023-04-29T11:16:35;1.52;;;0.98;;
41333;SDS011;27078;46.428;6.256;2023-04-29T11:19:07;1.73;;;0.90;;
41333;SDS011;27078;46.428;6.256;2023-04-29T11:21:35;2.78;;;1.05;;
41333;SDS011;27078;46.428;6.256;2023-04-29T11:24:01;2.78;;;1.25;;
41333;SDS011;27078;46.428;6.256;2023-04-29T11:26:30;2.10;;;1.00;;
41333;SDS011;27078;46.428;6.256;2023-04-29T11:28:56;3.30;;;1.30;;
41333;SDS011;27078;46.428;6.256;2023-04-29T11:31:26;1.70;;;1.13;;
41333;SDS011;27078;46.428;6.256;2023-04-29T11:33:55;2.33;;;1.42;;
41333;SDS011;27078;46.428;6.256;2023-04-29T11:36:20;3.35;;;1.40;;
41333;SDS011;27078;46.428;6.256;2023-04-29T11:38:46;3.33;;;1.35;;
41333;SDS011;27078;46.428;6.256;2023-04-29T11:41:11;2.03;;;1.23;;
41333;SDS011;27078;46.428;6.256;2023-04-29T11:43:38;6.68;;;1.10;;
41333;SDS011;27078;46.428;6.256;2023-04-29T11:46:10;2.22;;;1.20;;
41333;SDS011;27078;46.428;6.256;2023-04-29T11:48:36;2.67;;;1.25;;
41333;SDS011;27078;46.428;6.256;2023-04-29T11:51:01;3.00;;;1.17;;
41333;SDS011;27078;46.428;6.256;2023-04-29T11:53:27;2.67;;;1.40;;
41333;SDS011;27078;46.428;6.256;2023-04-29T11:55:53;2.78;;;1.50;;
41333;SDS011;27078;46.428;6.256;2023-04-29T11:58:19;2.65;;;1.48;;
41333;SDS011;27078;46.428;6.256;2023-04-29T12:00:48;3.05;;;1.50;;
41333;SDS011;27078;46.428;6.256;2023-04-29T12:03:14;2.42;;;1.48;;
41333;SDS011;27078;46.428;6.256;2023-04-29T12:08:12;2.50;;;1.60;;
41333;SDS011;27078;46.428;6.256;2023-04-29T12:10:38;2.60;;;1.65;;
41333;SDS011;27078;46.428;6.256;2023-04-29T12:13:04;2.70;;;1.60;;
41333;SDS011;27078;46.428;6.256;2023-04-29T12:15:30;2.38;;;1.50;;
41333;SDS011;27078;46.428;6.256;2023-04-29T12:17:56;2.40;;;1.60;;
41333;SDS011;27078;46.428;6.256;2023-04-29T12:20:22;1.90;;;1.35;;
41333;SDS011;27078;46.428;6.256;2023-04-29T12:22:47;2.15;;;1.48;;
41333;SDS011;27078;46.428;6.256;2023-04-29T12:25:14;2.20;;;1.58;;
41333;SDS011;27078;46.428;6.256;2023-04-29T12:27:39;2.10;;;1.40;;
41333;SDS011;27078;46.428;6.256;2023-04-29T12:30:08;2.08;;;1.50;;
41333;SDS011;27078;46.428;6.256;2023-04-29T12:32:34;3.22;;;1.70;;
41333;SDS011;27078;46.428;6.256;2023-04-29T12:35:00;2.55;;;1.58;;
41333;SDS011;27078;46.428;6.256;2023-04-29T12:37:26;2.78;;;1.60;;
41333;SDS011;27078;46.428;6.256;2023-04-29T12:39:53;2.83;;;1.55;;
41333;SDS011;27078;46.428;6.256;2023-04-29T12:42:19;4.25;;;1.50;;
41333;SDS011;27078;46.428;6.256;2023-04-29T12:44:45;2.00;;;1.50;;
41333;SDS011;27078;46.428;6.256;2023-04-29T12:47:13;1.75;;;1.40;;
41333;SDS011;27078;46.428;6.256;2023-04-29T12:49:40;2.75;;;1.77;;
41333;SDS011;27078;46.428;6.256;2023-04-29T12:52:09;2.80;;;1.60;;
41333;SDS011;27078;46.428;6.256;2023-04-29T12:54:35;3.10;;;1.80;;
41333;SDS011;27078;46.428;6.256;2023-04-29T12:57:01;2.97;;;1.80;;
41333;SDS011;27078;46.428;6.256;2023-04-29T12:59:27;2.05;;;1.42;;
41333;SDS011;27078;46.428;6.256;2023-04-29T13:01:52;2.97;;;1.75;;
41333;SDS011;27078;46.428;6.256;2023-04-29T13:04:17;2.55;;;1.45;;
41333;SDS011;27078;46.428;6.256;2023-04-29T13:06:43;2.47;;;1.70;;
41333;SDS011;27078;46.428;6.256;2023-04-29T13:09:08;2.85;;;1.90;;
41333;SDS011;27078;46.428;6.256;2023-04-29T13:11:36;2.47;;;1.92;;
41333;SDS011;27078;46.428;6.256;2023-04-29T13:14:02;1.85;;;1.60;;
41333;SDS011;27078;46.428;6.256;2023-04-29T13:16:27;3.30;;;1.98;;
41333;SDS011;27078;46.428;6.256;2023-04-29T13:18:53;2.72;;;2.10;;
41333;SDS011;27078;46.428;6.256;2023-04-29T13:21:18;2.67;;;1.90;;
41333;SDS011;27078;46.428;6.256;2023-04-29T13:23:44;3.03;;;2.40;;
41333;SDS011;27078;46.428;6.256;2023-04-29T13:26:10;2.60;;;2.00;;
41333;SDS011;27078;46.428;6.256;2023-04-29T13:28:36;2.83;;;2.38;;
41333;SDS011;27078;46.428;6.256;2023-04-29T13:31:01;3.65;;;2.53;;
41333;SDS011;27078;46.428;6.256;2023-04-29T13:33:26;3.08;;;2.40;;
41333;SDS011;27078;46.428;6.256;2023-04-29T13:35:52;2.67;;;2.20;;
41333;SDS011;27078;46.428;6.256;2023-04-29T13:38:17;3.45;;;2.50;;
41333;SDS011;27078;46.428;6.256;2023-04-29T13:40:43;3.10;;;2.33;;
41333;SDS011;27078;46.428;6.256;2023-04-29T13:43:08;3.75;;;2.28;;
41333;SDS011;27078;46.428;6.256;2023-04-29T13:45:33;2.75;;;2.30;;
41333;SDS011;27078;46.428;6.256;2023-04-29T13:47:59;5.10;;;2.70;;
41333;SDS011;27078;46.428;6.256;2023-04-29T13:50:25;3.30;;;1.20;;
41333;SDS011;27078;46.428;6.256;2023-04-29T13:52:50;2.75;;;1.58;;
41333;SDS011;27078;46.428;6.256;2023-04-29T13:55:16;2.63;;;1.63;;
41333;SDS011;27078;46.428;6.256;2023-04-29T13:57:41;2.88;;;1.70;;
41333;SDS011;27078;46.428;6.256;2023-04-29T14:00:08;2.00;;;1.73;;
41333;SDS011;27078;46.428;6.256;2023-04-29T14:02:35;2.20;;;1.60;;
41333;SDS011;27078;46.428;6.256;2023-04-29T14:05:00;1.98;;;1.58;;
41333;SDS011;27078;46.428;6.256;2023-04-29T14:07:25;1.42;;;0.80;;
41333;SDS011;27078;46.428;6.256;2023-04-29T14:09:51;1.55;;;0.73;;
41333;SDS011;27078;46.428;6.256;2023-04-29T14:12:16;1.25;;;0.60;;
41333;SDS011;27078;46.428;6.256;2023-04-29T14:14:41;2.13;;;1.10;;
41333;SDS011;27078;46.428;6.256;2023-04-29T14:17:07;2.95;;;1.20;;
41333;SDS011;27078;46.428;6.256;2023-04-29T14:19:32;3.17;;;1.50;;
41333;SDS011;27078;46.428;6.256;2023-04-29T14:21:58;2.90;;;1.58;;
41333;SDS011;27078;46.428;6.256;2023-04-29T14:24:23;4.15;;;1.70;;
41333;SDS011;27078;46.428;6.256;2023-04-29T14:26:48;2.47;;;1.58;;
41333;SDS011;27078;46.428;6.256;2023-04-29T14:29:14;4.03;;;1.80;;
41333;SDS011;27078;46.428;6.256;2023-04-29T14:31:39;2.67;;;1.80;;
41333;SDS011;27078;46.428;6.256;2023-04-29T14:34:05;3.38;;;1.98;;
41333;SDS011;27078;46.428;6.256;2023-04-29T14:36:31;2.95;;;2.17;;
41333;SDS011;27078;46.428;6.256;2023-04-29T14:38:57;3.50;;;2.30;;
41333;SDS011;27078;46.428;6.256;2023-04-29T14:41:22;4.20;;;2.20;;
41333;SDS011;27078;46.428;6.256;2023-04-29T14:43:48;3.88;;;2.55;;
41333;SDS011;27078;46.428;6.256;2023-04-29T14:46:13;3.80;;;1.60;;
41333;SDS011;27078;46.428;6.256;2023-04-29T14:48:38;2.90;;;0.95;;
41333;SDS011;27078;46.428;6.256;2023-04-29T14:51:04;1.83;;;0.93;;
41333;SDS011;27078;46.428;6.256;2023-04-29T14:53:30;1.38;;;0.60;;
41333;SDS011;27078;46.428;6.256;2023-04-29T14:55:56;1.70;;;0.65;;
41333;SDS011;27078;46.428;6.256;2023-04-29T14:58:21;1.67;;;0.90;;
41333;SDS011;27078;46.428;6.256;2023-04-29T15:00:47;2.35;;;0.80;;
41333;SDS011;27078;46.428;6.256;2023-04-29T15:03:13;1.52;;;0.80;;
41333;SDS011;27078;46.428;6.256;2023-04-29T15:05:38;3.08;;;1.10;;
41333;SDS011;27078;46.428;6.256;2023-04-29T15:08:04;2.30;;;1.00;;
41333;SDS011;27078;46.428;6.256;2023-04-29T15:10:29;1.60;;;0.90;;
41333;SDS011;27078;46.428;6.256;2023-04-29T15:12:55;2.70;;;0.90;;
41333;SDS011;27078;46.428;6.256;2023-04-29T15:15:21;2.30;;;0.90;;
41333;SDS011;27078;46.428;6.256;2023-04-29T15:17:47;2.47;;;1.00;;
41333;SDS011;27078;46.428;6.256;2023-04-29T15:20:12;2.63;;;1.05;;
41333;SDS011;27078;46.428;6.256;2023-04-29T15:22:38;3.42;;;1.08;;